Mark Shell — WDI7434 — position and weather

sailwx.info

Track history (hours):
 
Tides and Currents Weather Stations Pressure Air Temp Water Temp Dewpoint Dewpoint Depression Visibility Wind Speed Wind Dir Waves Ship Positions

Mark Shell

Owner: Kirby Inland Marine LP, Houston, TX. More information available from US FCC via Universal Licensing System and Coast Guard Vessel Documentation Center.

Last reported at 2017-Nov-18 11:46 UTC. Time now 2017-Nov-21 17:43 UTC.
Position N 31°29' W 091°31'.

Length 213 m; draft 3 m.

Type: . MMSI: 367728680.

Date/timePositionNaut miles runAvg speedWind from/ knotsBaromVisibWave heightAir tempDewpointWater temp
2017-Nov-18 11:46N 31°29' W 091°31'13 7.8
2017-Nov-18 10:08N 31°41' W 091°24'1 9.4
2017-Nov-18 10:00N 31°42' W 091°24'5 9.3
2017-Nov-18 09:28N 31°46' W 091°22'14 7.9
2017-Nov-18 07:44N 31°57' W 091°12'6 8.3
2017-Nov-18 07:03N 31°60' W 091°06'0 9.0
2017-Nov-18 07:00N 31°60' W 091°05'5 8.2
2017-Nov-18 06:24N 32°05' W 091°05'3 8.2
2017-Nov-18 06:01N 32°08' W 091°06'4 8.0
2017-Nov-18 05:30N 32°07' W 091°02'4 8.6
2017-Nov-18 05:01N 32°11' W 090°60'5 9.0
2017-Nov-18 04:30N 32°16' W 090°58'4 8.6
2017-Nov-18 04:00N 32°19' W 090°55'3 5.2
2017-Nov-18 03:30N 32°21' W 090°56'3 6.9
2017-Nov-18 03:00N 32°21' W 090°60'4 8.1
2017-Nov-18 02:30N 32°25' W 091°01'5 9.1
2017-Nov-18 02:01N 32°27' W 091°05'4 8.1
2017-Nov-18 01:31N 32°31' W 091°06'4 7.5
2017-Nov-18 01:01N 32°35' W 091°07'3 6.4
2017-Nov-18 00:31N 32°38' W 091°09'  
Track history (hours):
 
Tides and Currents Weather Stations Pressure Air Temp Water Temp Dewpoint Dewpoint Depression Visibility Wind Speed Wind Dir Waves Ship Positions

Mark Shell

Owner: Kirby Inland Marine LP, Houston, TX. More information available from US FCC via Universal Licensing System and Coast Guard Vessel Documentation Center.

Last reported at 2017-Nov-18 11:46 UTC. Time now 2017-Nov-21 17:43 UTC.
Position N 31°29' W 091°31'.

Length 213 m; draft 3 m.

Type: . MMSI: 367728680.

Date/timePositionNaut miles runAvg speedWind from/ knotsBaromVisibWave heightAir tempDewpointWater temp
2017-Nov-18 11:46N 31°29' W 091°31'13 7.8
2017-Nov-18 10:08N 31°41' W 091°24'1 9.4
2017-Nov-18 10:00N 31°42' W 091°24'5 9.3
2017-Nov-18 09:28N 31°46' W 091°22'14 7.9
2017-Nov-18 07:44N 31°57' W 091°12'6 8.3
2017-Nov-18 07:03N 31°60' W 091°06'0 9.0
2017-Nov-18 07:00N 31°60' W 091°05'5 8.2
2017-Nov-18 06:24N 32°05' W 091°05'3 8.2
2017-Nov-18 06:01N 32°08' W 091°06'4 8.0
2017-Nov-18 05:30N 32°07' W 091°02'4 8.6
2017-Nov-18 05:01N 32°11' W 090°60'5 9.0
2017-Nov-18 04:30N 32°16' W 090°58'4 8.6
2017-Nov-18 04:00N 32°19' W 090°55'3 5.2
2017-Nov-18 03:30N 32°21' W 090°56'3 6.9
2017-Nov-18 03:00N 32°21' W 090°60'4 8.1
2017-Nov-18 02:30N 32°25' W 091°01'5 9.1
2017-Nov-18 02:01N 32°27' W 091°05'4 8.1
2017-Nov-18 01:31N 32°31' W 091°06'4 7.5
2017-Nov-18 01:01N 32°35' W 091°07'3 6.4
2017-Nov-18 00:31N 32°38' W 091°09'  

Dump ship's entire track history